Terminal Aerodrome Forecast
Issued by NWS Twin Cities, MN

Home | Current Version | Previous Version | Graphics & Text | Print | Product List | Glossary On
Versions: 1 2 3 4 5 6 7 8 9 10 11 12 13 14 15 16 17 18 19 20 21 22 23 24 25 26
000
FTUS43 KMPX 302337
TAFMSP
TAF
KMSP 302337Z 0100/0206 33011KT P6SM -RA SCT008 OVC014
     FM010400 31011KT 6SM -RA BR OVC008
      TEMPO 0104/0106 4SM -RASN
     FM010600 31010KT 6SM -SN BR OVC006
     FM011000 31009KT P6SM OVC008
     FM011500 32008KT P6SM OVC012
     FM011900 30008KT P6SM OVC022=

USA.gov is the U.S. government's official web portal to all federal, state and local government web resources and services.